Terminal Aerodrome Forecast
Issued by NWS

Home | Current Version | Previous Version | Text Only | Print | Product List | Glossary On
Versions: 1 2 3 4 5 6 7 8 9 10 11 12 13 14 15 16 17 18 19 20 21 22 23 24 25 26 27 28 29 30 31 32 33 34 35 36 37 38 39
367
FTUS42 KCAE 240109 AAE
TAFDNL
TAF AMD
KDNL 240109Z 2401/2424 09012KT P6SM VCTS OVC010CB
      TEMPO 2401/2405 6SM -SHRA OVC007
     FM240800 14005KT 3SM BR BKN008 OVC020
     FM241400 23007KT P6SM SCT010 BKN020
     FM241700 24010KT P6SM SCT025 BKN100=

USA.gov is the U.S. government's official web portal to all federal, state and local government web resources and services.